Time;durP1;ratioP1;P1;durP2;ratioP2;P2;SDS_P1;SDS_P2;PMS_P1;PMS_P2;Temp;Humidity;BMP_temperature;BMP_pressure;BME280_temperature;BME280_humidity;BME280_pressure;Samples;Min_cycle;Max_cycle;Signal;HPM_P1;HPM_P2
2021/10/06 00:01:05;;;;;;;10.85;7.10;;;;;;;;;;5116101;28;20031;-63
2021/10/06 00:03:31;;;;;;;9.38;7.18;;;;;;;;;;5115538;28;20027;-63
2021/10/06 00:05:57;;;;;;;7.43;6.18;;;;;;;;;;5115431;28;20046;-63
2021/10/06 00:08:22;;;;;;;8.05;6.63;;;;;;;;;;5115271;28;20118;-63
2021/10/06 00:10:48;;;;;;;9.43;6.65;;;;;;;;;;5097243;28;20039;-63
2021/10/06 00:13:14;;;;;;;7.68;6.53;;;;;;;;;;5115194;28;20027;-63
2021/10/06 00:15:44;;;;;;;7.97;6.10;;;;;;;;;;5114853;28;20555;-63
2021/10/06 00:18:10;;;;;;;8.77;6.53;;;;;;;;;;5115335;28;20040;-63
2021/10/06 00:20:36;;;;;;;7.28;6.57;;;;;;;;;;5115158;28;20399;-63
2021/10/06 00:23:02;;;;;;;7.22;6.40;;;;;;;;;;5115516;28;20031;-63
2021/10/06 00:25:27;;;;;;;10.52;6.85;;;;;;;;;;5115200;28;20394;-63
2021/10/06 00:27:54;;;;;;;8.90;6.10;;;;;;;;;;5114995;28;20062;-63
2021/10/06 00:30:20;;;;;;;8.15;6.38;;;;;;;;;;5114650;28;20065;-63
2021/10/06 00:32:46;;;;;;;8.98;6.38;;;;;;;;;;5115489;28;20130;-63
2021/10/06 00:35:11;;;;;;;8.05;6.35;;;;;;;;;;5096979;28;20495;-63
2021/10/06 00:37:37;;;;;;;8.00;6.53;;;;;;;;;;5115006;28;20028;-63
2021/10/06 00:40:03;;;;;;;7.28;6.28;;;;;;;;;;5114790;28;20038;-64
2021/10/06 00:42:29;;;;;;;11.02;6.65;;;;;;;;;;5114676;28;20379;-61
2021/10/06 00:44:54;;;;;;;7.68;6.43;;;;;;;;;;5115061;28;20042;-61
2021/10/06 00:47:20;;;;;;;6.90;6.25;;;;;;;;;;5114966;28;20058;-61
2021/10/06 00:49:46;;;;;;;11.52;6.43;;;;;;;;;;5114774;28;20111;-61
2021/10/06 00:52:12;;;;;;;8.57;6.72;;;;;;;;;;5114642;28;20031;-61
2021/10/06 00:54:38;;;;;;;7.07;6.38;;;;;;;;;;5114586;28;20498;-61
2021/10/06 00:57:05;;;;;;;7.30;6.60;;;;;;;;;;5114830;28;20118;-61
2021/10/06 00:59:30;;;;;;;6.97;6.13;;;;;;;;;;5114442;28;20478;-61
2021/10/06 01:01:56;;;;;;;8.63;6.25;;;;;;;;;;5114397;28;20028;-61
2021/10/06 01:04:22;;;;;;;7.18;5.97;;;;;;;;;;5114379;28;20035;-61
2021/10/06 01:06:47;;;;;;;7.43;6.32;;;;;;;;;;5114559;28;20031;-61
2021/10/06 01:09:13;;;;;;;7.43;6.55;;;;;;;;;;5113511;28;20038;-61
2021/10/06 01:11:39;;;;;;;7.07;6.05;;;;;;;;;;5114201;28;20028;-61
2021/10/06 01:14:04;;;;;;;8.32;6.60;;;;;;;;;;5114378;28;20558;-61
2021/10/06 01:16:30;;;;;;;7.05;6.05;;;;;;;;;;5114002;28;20031;-61
2021/10/06 01:18:55;;;;;;;8.07;6.15;;;;;;;;;;5114063;28;20050;-61
2021/10/06 01:21:21;;;;;;;9.68;6.13;;;;;;;;;;5114209;28;20119;-61
2021/10/06 01:23:48;;;;;;;6.43;5.72;;;;;;;;;;5095725;28;20034;-61
2021/10/06 01:26:20;;;;;;;6.93;6.25;;;;;;;;;;5114306;28;20028;-61
2021/10/06 01:28:51;;;;;;;7.45;5.57;;;;;;;;;;5114252;28;20067;-61
2021/10/06 01:31:17;;;;;;;7.40;5.97;;;;;;;;;;5095736;28;20039;-61
2021/10/06 01:33:42;;;;;;;7.47;6.05;;;;;;;;;;5114038;28;20101;-61
2021/10/06 01:36:08;;;;;;;6.43;5.78;;;;;;;;;;5113980;28;20040;-61
2021/10/06 01:38:33;;;;;;;6.45;5.65;;;;;;;;;;5113923;28;20024;-61
2021/10/06 01:40:59;;;;;;;9.02;6.38;;;;;;;;;;5113987;28;20036;-61
2021/10/06 01:43:25;;;;;;;11.25;6.25;;;;;;;;;;5113965;28;20035;-61
2021/10/06 01:45:50;;;;;;;8.45;6.55;;;;;;;;;;5113839;28;20475;-62
2021/10/06 01:48:16;;;;;;;9.57;6.82;;;;;;;;;;5113598;28;20039;-61
2021/10/06 01:50:42;;;;;;;6.85;6.15;;;;;;;;;;5113759;28;20126;-61
2021/10/06 01:53:11;;;;;;;9.65;7.00;;;;;;;;;;5113666;28;20020;-60
2021/10/06 01:55:38;;;;;;;7.03;5.82;;;;;;;;;;5113764;28;20039;-60
2021/10/06 01:58:05;;;;;;;7.65;5.97;;;;;;;;;;5113610;28;20372;-60
2021/10/06 02:00:32;;;;;;;9.40;6.45;;;;;;;;;;5113600;28;20538;-61
2021/10/06 02:02:58;;;;;;;8.05;5.85;;;;;;;;;;5113918;28;20062;-61
2021/10/06 02:05:24;;;;;;;9.13;6.22;;;;;;;;;;5095429;28;20081;-60
2021/10/06 02:07:49;;;;;;;6.90;6.25;;;;;;;;;;5113459;28;20031;-60
2021/10/06 02:10:17;;;;;;;6.47;5.88;;;;;;;;;;5113579;28;20056;-60
2021/10/06 02:12:42;;;;;;;6.50;6.00;;;;;;;;;;5095508;28;20028;-60
2021/10/06 02:15:08;;;;;;;6.25;5.75;;;;;;;;;;5112980;28;20073;-63
2021/10/06 02:17:33;;;;;;;7.60;5.72;;;;;;;;;;5095573;28;20093;-62
2021/10/06 02:20:00;;;;;;;7.20;6.10;;;;;;;;;;5115872;28;20421;-62
2021/10/06 02:22:27;;;;;;;9.63;6.13;;;;;;;;;;5082399;28;20034;-62
2021/10/06 02:24:53;;;;;;;7.00;6.28;;;;;;;;;;5099232;28;20483;-63
2021/10/06 02:27:19;;;;;;;8.68;6.22;;;;;;;;;;5117238;28;20033;-63
2021/10/06 02:29:44;;;;;;;7.30;5.88;;;;;;;;;;5117573;28;20034;-62
2021/10/06 02:32:10;;;;;;;6.32;5.57;;;;;;;;;;5117496;28;20015;-62
2021/10/06 02:34:36;;;;;;;7.32;6.05;;;;;;;;;;5117421;28;20097;-62
2021/10/06 02:37:03;;;;;;;7.45;5.70;;;;;;;;;;5117483;28;20031;-63
2021/10/06 02:39:29;;;;;;;8.25;6.57;;;;;;;;;;5117163;28;20036;-63
2021/10/06 02:41:55;;;;;;;6.72;6.10;;;;;;;;;;5117110;28;20042;-63
2021/10/06 02:44:21;;;;;;;7.22;5.75;;;;;;;;;;5116777;28;20031;-63
2021/10/06 02:46:47;;;;;;;6.75;6.07;;;;;;;;;;5116964;28;20137;-63
2021/10/06 02:49:13;;;;;;;7.30;5.43;;;;;;;;;;5116854;28;20114;-63
2021/10/06 02:51:38;;;;;;;8.95;6.72;;;;;;;;;;5098619;28;20036;-63
2021/10/06 02:54:06;;;;;;;6.35;5.65;;;;;;;;;;5117070;28;20093;-63
2021/10/06 02:56:31;;;;;;;8.05;6.95;;;;;;;;;;5098665;28;20119;-63
2021/10/06 02:58:57;;;;;;;10.18;6.53;;;;;;;;;;5098933;28;20131;-62
2021/10/06 03:01:22;;;;;;;7.00;5.97;;;;;;;;;;5116937;28;20058;-62
2021/10/06 03:03:48;;;;;;;10.52;6.30;;;;;;;;;;5116973;28;20039;-63
2021/10/06 03:06:13;;;;;;;7.22;6.43;;;;;;;;;;5116673;28;20032;-63
2021/10/06 03:08:40;;;;;;;8.82;6.85;;;;;;;;;;5116636;28;20031;-63
2021/10/06 03:11:05;;;;;;;9.18;6.50;;;;;;;;;;5098532;28;20437;-63
2021/10/06 03:13:31;;;;;;;6.85;6.10;;;;;;;;;;5116945;28;20036;-62
2021/10/06 03:16:00;;;;;;;7.65;6.50;;;;;;;;;;5115978;28;20499;-63
2021/10/06 03:18:26;;;;;;;6.97;6.27;;;;;;;;;;5116587;28;20081;-63
2021/10/06 03:20:53;;;;;;;9.63;6.35;;;;;;;;;;5098177;28;20044;-63
2021/10/06 03:23:21;;;;;;;6.60;5.93;;;;;;;;;;5116458;28;20172;-63
2021/10/06 03:25:48;;;;;;;12.95;6.35;;;;;;;;;;5116452;28;20379;-63
2021/10/06 03:28:13;;;;;;;9.27;6.07;;;;;;;;;;5097857;28;20042;-62
2021/10/06 03:30:39;;;;;;;7.22;5.93;;;;;;;;;;5097140;28;20023;-62
2021/10/06 03:33:05;;;;;;;6.25;5.65;;;;;;;;;;5116091;28;20035;-62
2021/10/06 03:35:30;;;;;;;7.03;5.97;;;;;;;;;;5116111;28;20066;-63
2021/10/06 03:37:56;;;;;;;6.65;5.95;;;;;;;;;;5116096;28;20042;-63
2021/10/06 03:40:22;;;;;;;7.15;5.40;;;;;;;;;;5116309;28;20034;-63
2021/10/06 03:42:48;;;;;;;6.45;5.68;;;;;;;;;;5116099;28;20039;-63
2021/10/06 03:45:17;;;;;;;6.78;6.07;;;;;;;;;;5116289;28;20040;-63
2021/10/06 03:47:43;;;;;;;6.78;6.18;;;;;;;;;;5098076;28;20074;-63
2021/10/06 03:50:11;;;;;;;7.18;6.47;;;;;;;;;;5116159;28;20043;-63
2021/10/06 03:52:37;;;;;;;7.25;6.20;;;;;;;;;;5115963;28;20032;-63
2021/10/06 03:55:02;;;;;;;8.68;6.40;;;;;;;;;;5115159;28;20016;-62
2021/10/06 03:57:28;;;;;;;7.35;5.28;;;;;;;;;;5115968;28;20085;-63
2021/10/06 03:59:53;;;;;;;8.02;5.75;;;;;;;;;;5115596;28;20459;-63
2021/10/06 04:02:19;;;;;;;6.63;5.93;;;;;;;;;;5115655;28;20027;-63
2021/10/06 04:04:45;;;;;;;6.30;5.70;;;;;;;;;;5115208;28;20028;-61
2021/10/06 04:07:14;;;;;;;6.10;5.50;;;;;;;;;;5115399;28;20506;-61
2021/10/06 04:09:40;;;;;;;5.82;5.30;;;;;;;;;;5115287;28;20050;-63
2021/10/06 04:12:05;;;;;;;6.13;5.32;;;;;;;;;;5115602;28;20036;-62
2021/10/06 04:14:31;;;;;;;6.07;5.47;;;;;;;;;;5115007;28;20016;-62
2021/10/06 04:16:56;;;;;;;10.15;6.10;;;;;;;;;;5115105;28;20036;-62
2021/10/06 04:19:22;;;;;;;6.47;5.38;;;;;;;;;;5115317;28;20044;-62
2021/10/06 04:21:48;;;;;;;7.40;6.00;;;;;;;;;;5115429;28;20043;-62
2021/10/06 04:24:15;;;;;;;6.97;5.93;;;;;;;;;;5097374;28;20344;-63
2021/10/06 04:26:41;;;;;;;6.25;5.65;;;;;;;;;;5115325;28;20118;-63
2021/10/06 04:29:07;;;;;;;8.00;6.03;;;;;;;;;;5114648;28;20463;-63
2021/10/06 04:31:32;;;;;;;7.00;6.28;;;;;;;;;;5114970;28;20043;-63
2021/10/06 04:33:58;;;;;;;7.65;5.88;;;;;;;;;;5115352;28;20034;-63
2021/10/06 04:36:23;;;;;;;7.90;6.03;;;;;;;;;;5114723;28;20030;-63
2021/10/06 04:38:49;;;;;;;6.80;6.20;;;;;;;;;;5114785;28;20448;-63
2021/10/06 04:41:15;;;;;;;6.47;5.97;;;;;;;;;;5114591;28;20035;-63
2021/10/06 04:43:41;;;;;;;6.47;5.72;;;;;;;;;;5114501;28;20039;-63
2021/10/06 04:46:06;;;;;;;6.45;5.88;;;;;;;;;;5114491;28;20402;-63
2021/10/06 04:48:32;;;;;;;8.50;6.28;;;;;;;;;;5114434;28;20024;-63
2021/10/06 04:50:57;;;;;;;10.05;6.03;;;;;;;;;;5114301;28;20484;-63
2021/10/06 04:53:23;;;;;;;10.65;6.18;;;;;;;;;;5114462;28;20427;-63
2021/10/06 04:55:48;;;;;;;6.70;5.78;;;;;;;;;;5114395;28;20039;-63
2021/10/06 04:58:14;;;;;;;9.23;5.97;;;;;;;;;;5114343;28;20134;-63
2021/10/06 05:00:40;;;;;;;6.50;5.90;;;;;;;;;;5114385;28;20038;-63
2021/10/06 05:03:09;;;;;;;8.32;5.45;;;;;;;;;;5113902;28;20475;-64
2021/10/06 05:05:35;;;;;;;7.32;6.22;;;;;;;;;;5114400;28;20405;-63
2021/10/06 05:08:00;;;;;;;7.55;5.88;;;;;;;;;;5114027;28;20469;-63
2021/10/06 05:10:26;;;;;;;6.90;5.78;;;;;;;;;;5114119;28;20114;-63
2021/10/06 05:12:51;;;;;;;7.95;5.68;;;;;;;;;;5114173;28;20055;-63
2021/10/06 05:15:17;;;;;;;6.38;5.75;;;;;;;;;;5113691;28;20178;-64
2021/10/06 05:17:42;;;;;;;6.57;5.88;;;;;;;;;;5113995;28;20130;-63
2021/10/06 05:20:08;;;;;;;10.07;6.47;;;;;;;;;;5113981;28;20039;-63
2021/10/06 05:22:34;;;;;;;6.55;5.95;;;;;;;;;;5113810;28;20032;-63
2021/10/06 05:24:59;;;;;;;7.45;5.72;;;;;;;;;;5113635;28;20044;-63
2021/10/06 05:27:25;;;;;;;7.47;5.78;;;;;;;;;;5113690;28;20024;-63
2021/10/06 05:29:50;;;;;;;7.38;5.95;;;;;;;;;;5113664;28;20039;-63
2021/10/06 05:32:16;;;;;;;6.60;6.03;;;;;;;;;;5113757;28;20028;-62
2021/10/06 05:34:41;;;;;;;9.50;5.93;;;;;;;;;;5113759;28;20601;-63
2021/10/06 05:37:07;;;;;;;7.07;6.35;;;;;;;;;;5113681;28;20471;-62
2021/10/06 05:39:32;;;;;;;6.72;6.07;;;;;;;;;;5113660;28;20039;-63
2021/10/06 05:41:58;;;;;;;9.13;6.40;;;;;;;;;;5113622;28;20417;-63
2021/10/06 05:44:23;;;;;;;10.88;6.10;;;;;;;;;;5113607;28;20395;-63
2021/10/06 05:46:49;;;;;;;6.47;5.45;;;;;;;;;;5095373;28;20050;-63
2021/10/06 05:49:14;;;;;;;6.20;5.60;;;;;;;;;;5113464;28;20097;-63
2021/10/06 05:51:40;;;;;;;7.20;5.53;;;;;;;;;;5113530;28;20019;-63
2021/10/06 05:54:06;;;;;;;9.63;6.13;;;;;;;;;;5115763;28;20063;-63
2021/10/06 05:56:32;;;;;;;7.63;5.80;;;;;;;;;;5120209;28;20047;-63
2021/10/06 05:58:57;;;;;;;6.65;5.82;;;;;;;;;;5119908;28;20043;-64
2021/10/06 06:01:26;;;;;;;6.55;5.93;;;;;;;;;;5120394;28;20040;-63
2021/10/06 06:03:52;;;;;;;6.60;6.00;;;;;;;;;;5120134;28;20436;-63
2021/10/06 06:06:18;;;;;;;8.98;6.30;;;;;;;;;;5120191;28;20119;-63
2021/10/06 06:08:43;;;;;;;9.45;6.45;;;;;;;;;;5120105;28;20043;-63
2021/10/06 06:11:08;;;;;;;6.05;5.53;;;;;;;;;;5120065;28;20105;-63
2021/10/06 06:13:34;;;;;;;5.88;5.18;;;;;;;;;;5120153;28;20050;-63
2021/10/06 06:16:00;;;;;;;12.23;10.23;;;;;;;;;;5119884;28;20028;-63
2021/10/06 06:18:25;;;;;;;8.18;7.03;;;;;;;;;;5120142;28;20035;-62
2021/10/06 06:20:51;;;;;;;7.70;5.95;;;;;;;;;;5120056;28;20032;-63
2021/10/06 06:23:16;;;;;;;8.25;5.97;;;;;;;;;;5119974;28;20126;-63
2021/10/06 06:25:42;;;;;;;6.32;5.72;;;;;;;;;;5119939;28;20084;-63
2021/10/06 06:28:07;;;;;;;8.05;6.35;;;;;;;;;;5120000;28;20123;-63
2021/10/06 06:30:33;;;;;;;9.02;6.30;;;;;;;;;;5119903;28;20028;-63
2021/10/06 06:32:58;;;;;;;6.70;5.78;;;;;;;;;;5120025;28;20115;-63
2021/10/06 06:35:24;;;;;;;5.97;5.43;;;;;;;;;;5120142;28;20028;-63
2021/10/06 06:37:49;;;;;;;6.72;5.70;;;;;;;;;;5119882;28;20453;-64
2021/10/06 06:40:15;;;;;;;5.82;5.25;;;;;;;;;;5120062;28;20020;-64
2021/10/06 06:42:41;;;;;;;9.10;6.10;;;;;;;;;;5119916;28;20035;-64
2021/10/06 06:45:07;;;;;;;7.55;6.05;;;;;;;;;;5119882;28;20405;-64
2021/10/06 06:47:33;;;;;;;8.00;5.95;;;;;;;;;;5119794;28;20505;-64
2021/10/06 06:49:58;;;;;;;8.77;6.38;;;;;;;;;;5119917;28;20055;-65
2021/10/06 06:52:24;;;;;;;6.53;5.93;;;;;;;;;;5119402;28;20190;-64
2021/10/06 06:54:49;;;;;;;7.78;6.20;;;;;;;;;;5119879;28;20038;-64
2021/10/06 06:57:15;;;;;;;6.25;5.75;;;;;;;;;;5119770;28;20035;-65
2021/10/06 06:59:40;;;;;;;6.93;5.90;;;;;;;;;;5119769;28;20026;-65
2021/10/06 07:02:06;;;;;;;8.50;5.70;;;;;;;;;;5119723;28;20043;-65
2021/10/06 07:04:32;;;;;;;7.68;6.55;;;;;;;;;;5119698;28;20399;-65
2021/10/06 07:06:58;;;;;;;8.70;6.57;;;;;;;;;;5115407;28;20391;-65
2021/10/06 07:09:24;;;;;;;9.27;6.30;;;;;;;;;;5116243;28;20057;-65
2021/10/06 07:11:53;;;;;;;7.53;6.13;;;;;;;;;;5116265;28;20484;-65
2021/10/06 07:14:19;;;;;;;6.00;5.47;;;;;;;;;;5116251;28;20024;-65
2021/10/06 07:16:45;;;;;;;6.40;5.65;;;;;;;;;;5116023;28;20126;-65
2021/10/06 07:19:10;;;;;;;8.77;5.85;;;;;;;;;;5116060;28;20042;-65
2021/10/06 07:21:36;;;;;;;6.45;5.90;;;;;;;;;;5116267;28;20079;-65
2021/10/06 07:24:03;;;;;;;6.88;6.20;;;;;;;;;;5116301;28;20035;-65
2021/10/06 07:26:28;;;;;;;6.35;5.75;;;;;;;;;;5116438;28;20407;-65
2021/10/06 07:28:54;;;;;;;7.75;5.60;;;;;;;;;;5116229;28;20035;-65
2021/10/06 07:31:20;;;;;;;6.45;5.85;;;;;;;;;;5116404;28;20039;-65
2021/10/06 07:33:47;;;;;;;7.70;6.25;;;;;;;;;;5116166;28;20028;-65
2021/10/06 07:36:12;;;;;;;8.95;6.55;;;;;;;;;;5114809;28;20031;-65
2021/10/06 07:38:38;;;;;;;8.18;6.43;;;;;;;;;;5114435;28;20133;-65
2021/10/06 07:41:03;;;;;;;7.15;6.45;;;;;;;;;;5114454;28;20585;-65
2021/10/06 07:43:29;;;;;;;6.15;5.65;;;;;;;;;;5114367;28;20046;-65
2021/10/06 07:45:54;;;;;;;7.78;6.35;;;;;;;;;;5113902;28;20040;-65
2021/10/06 07:48:23;;;;;;;6.57;6.00;;;;;;;;;;5114168;28;20375;-65
2021/10/06 07:50:48;;;;;;;8.00;6.32;;;;;;;;;;5114614;28;20042;-65
2021/10/06 07:53:14;;;;;;;6.75;5.82;;;;;;;;;;5115575;28;20028;-65
2021/10/06 07:55:40;;;;;;;6.55;5.45;;;;;;;;;;5115585;28;20780;-65
2021/10/06 07:58:05;;;;;;;5.90;5.35;;;;;;;;;;5097196;28;20122;-65
2021/10/06 08:00:31;;;;;;;6.07;5.60;;;;;;;;;;5115579;28;20115;-65
2021/10/06 08:02:56;;;;;;;5.80;5.35;;;;;;;;;;5097292;28;20051;-65
2021/10/06 08:05:22;;;;;;;8.07;6.07;;;;;;;;;;5115399;28;20035;-65
2021/10/06 08:07:47;;;;;;;6.35;5.68;;;;;;;;;;5115351;28;20059;-65
2021/10/06 08:10:13;;;;;;;8.88;5.90;;;;;;;;;;5115261;28;20063;-65
2021/10/06 08:12:38;;;;;;;6.90;6.20;;;;;;;;;;5115227;28;20074;-65
2021/10/06 08:15:06;;;;;;;6.28;5.68;;;;;;;;;;5114821;28;20452;-65
2021/10/06 08:17:31;;;;;;;8.32;6.22;;;;;;;;;;5115035;28;20030;-65
2021/10/06 08:19:57;;;;;;;7.00;6.25;;;;;;;;;;5115115;28;20040;-65
2021/10/06 08:22:22;;;;;;;7.63;6.93;;;;;;;;;;5115000;28;20024;-65
2021/10/06 08:24:48;;;;;;;8.77;7.22;;;;;;;;;;5114975;28;20040;-65
2021/10/06 08:27:14;;;;;;;8.05;7.20;;;;;;;;;;5115017;28;20031;-65
2021/10/06 08:29:40;;;;;;;9.43;6.97;;;;;;;;;;5114840;28;20081;-65
2021/10/06 08:32:05;;;;;;;7.50;6.68;;;;;;;;;;5114911;28;20078;-65
2021/10/06 08:34:31;;;;;;;10.43;7.00;;;;;;;;;;5114861;28;20024;-65
2021/10/06 08:36:57;;;;;;;7.40;6.75;;;;;;;;;;5114807;28;20024;-65
2021/10/06 08:39:22;;;;;;;9.80;6.97;;;;;;;;;;5114760;28;20067;-65
2021/10/06 08:41:48;;;;;;;8.27;7.53;;;;;;;;;;5114427;28;20038;-65
2021/10/06 08:44:15;;;;;;;7.85;7.13;;;;;;;;;;5114466;28;20123;-65
2021/10/06 08:46:40;;;;;;;7.47;6.88;;;;;;;;;;5114503;28;20118;-65
2021/10/06 08:49:06;;;;;;;6.65;6.00;;;;;;;;;;5114473;28;20122;-65
2021/10/06 08:51:33;;;;;;;5.93;5.35;;;;;;;;;;5113955;28;20031;-65
2021/10/06 08:54:00;;;;;;;6.22;5.20;;;;;;;;;;5114513;28;20097;-65
2021/10/06 08:56:27;;;;;;;7.72;6.95;;;;;;;;;;5114718;28;20384;-66
2021/10/06 08:58:53;;;;;;;10.20;8.20;;;;;;;;;;5114829;28;20422;-66
2021/10/06 09:01:27;;;;;;;9.10;7.45;;;;;;;;;;5114705;28;20032;-66
2021/10/06 09:03:57;;;;;;;7.95;6.88;;;;;;;;;;5114703;28;20038;-66
2021/10/06 09:06:52;;;;;;;12.07;7.18;;;;;;;;;;5114492;28;20039;-67
2021/10/06 09:09:22;;;;;;;7.25;6.55;;;;;;;;;;5091975;28;20399;-67
2021/10/06 09:11:52;;;;;;;7.53;6.50;;;;;;;;;;5114114;28;20029;-64
2021/10/06 09:14:18;;;;;;;7.55;6.75;;;;;;;;;;5114134;28;20523;-63
2021/10/06 09:16:44;;;;;;;7.10;6.40;;;;;;;;;;5113727;28;20043;-63
2021/10/06 09:19:10;;;;;;;6.78;6.03;;;;;;;;;;5113887;28;20042;-63
2021/10/06 09:21:55;;;;;;;8.73;6.25;;;;;;;;;;5113832;28;20130;-63
2021/10/06 09:24:22;;;;;;;7.35;6.65;;;;;;;;;;5113492;28;20126;-63
2021/10/06 09:27:01;;;;;;;7.50;6.85;;;;;;;;;;5113743;28;20550;-61
2021/10/06 09:29:26;;;;;;;9.65;6.43;;;;;;;;;;5113050;28;20514;-62
2021/10/06 09:31:52;;;;;;;7.40;6.70;;;;;;;;;;5113693;28;20055;-63
2021/10/06 09:34:20;;;;;;;9.48;6.80;;;;;;;;;;5113151;28;20030;-62
2021/10/06 09:36:45;;;;;;;8.18;6.60;;;;;;;;;;5113697;28;20486;-62
2021/10/06 09:39:11;;;;;;;9.52;8.63;;;;;;;;;;5113625;28;20042;-62
2021/10/06 09:41:39;;;;;;;10.38;9.38;;;;;;;;;;5113787;28;20028;-62
2021/10/06 09:44:08;;;;;;;8.02;7.22;;;;;;;;;;5095205;28;20126;-62
2021/10/06 09:46:34;;;;;;;8.95;7.43;;;;;;;;;;5113660;28;20517;-62
2021/10/06 09:49:00;;;;;;;12.32;11.23;;;;;;;;;;5113559;28;20399;-62
2021/10/06 09:51:26;;;;;;;8.60;7.85;;;;;;;;;;5113505;28;20023;-62
2021/10/06 09:53:52;;;;;;;9.43;8.52;;;;;;;;;;5113474;28;20028;-62
2021/10/06 09:56:18;;;;;;;17.02;15.32;;;;;;;;;;5113602;28;20024;-62
2021/10/06 09:58:44;;;;;;;10.35;9.35;;;;;;;;;;5113499;28;20399;-62
2021/10/06 10:01:11;;;;;;;15.93;14.23;;;;;;;;;;5113312;28;20031;-62
2021/10/06 10:03:37;;;;;;;9.68;8.77;;;;;;;;;;5113344;28;20036;-62
2021/10/06 10:06:03;;;;;;;7.97;7.22;;;;;;;;;;5113388;28;20085;-62
2021/10/06 10:08:28;;;;;;;8.43;7.30;;;;;;;;;;5113317;28;20123;-62
2021/10/06 10:10:54;;;;;;;8.63;7.35;;;;;;;;;;5113354;28;20031;-62
2021/10/06 10:13:24;;;;;;;8.63;7.25;;;;;;;;;;5113304;28;20112;-62
2021/10/06 10:15:50;;;;;;;7.22;6.25;;;;;;;;;;5112958;28;20044;-62
2021/10/06 10:18:17;;;;;;;8.77;6.85;;;;;;;;;;5113377;28;20560;-62
2021/10/06 10:20:43;;;;;;;8.32;6.22;;;;;;;;;;5113271;28;20042;-62
2021/10/06 10:23:12;;;;;;;7.43;5.88;;;;;;;;;;5095156;28;20031;-62
2021/10/06 10:25:39;;;;;;;5.80;5.30;;;;;;;;;;5094911;28;20043;-62
2021/10/06 10:28:12;;;;;;;6.85;6.18;;;;;;;;;;5113081;28;20039;-62
2021/10/06 10:30:39;;;;;;;6.57;5.93;;;;;;;;;;5112774;28;20032;-62
2021/10/06 10:33:05;;;;;;;8.77;7.05;;;;;;;;;;5113232;28;20039;-62
2021/10/06 10:35:32;;;;;;;14.77;13.20;;;;;;;;;;5113261;28;20052;-62
2021/10/06 10:37:57;;;;;;;14.43;12.75;;;;;;;;;;5113138;28;20020;-62
2021/10/06 10:40:35;;;;;;;9.98;8.48;;;;;;;;;;5114450;28;20040;-62
2021/10/06 10:43:03;;;;;;;15.32;12.27;;;;;;;;;;5116969;28;20031;-62
2021/10/06 10:45:48;;;;;;;11.75;8.82;;;;;;;;;;5116843;28;20382;-62
2021/10/06 10:48:15;;;;;;;9.15;7.93;;;;;;;;;;5116857;28;20032;-62
2021/10/06 10:50:43;;;;;;;7.50;6.78;;;;;;;;;;5116690;28;20539;-62
2021/10/06 10:53:19;;;;;;;10.02;7.10;;;;;;;;;;5116846;28;20429;-62
2021/10/06 10:55:52;;;;;;;8.23;7.18;;;;;;;;;;5116758;28;20055;-62
2021/10/06 10:58:31;;;;;;;10.70;8.80;;;;;;;;;;5116770;28;20035;-62
2021/10/06 11:00:58;;;;;;;25.60;22.95;;;;;;;;;;5116581;28;20046;-62
2021/10/06 11:03:23;;;;;;;10.43;9.32;;;;;;;;;;5116497;28;20036;-62
2021/10/06 11:05:50;;;;;;;88.53;48.33;;;;;;;;;;5116451;28;20036;-62
2021/10/06 11:08:25;;;;;;;13.73;9.38;;;;;;;;;;5116286;28;20028;-62
2021/10/06 11:11:09;;;;;;;8.00;6.38;;;;;;;;;;5116448;28;20027;-62
2021/10/06 11:13:42;;;;;;;6.95;6.35;;;;;;;;;;5098143;28;20081;-62
2021/10/06 11:16:07;;;;;;;7.03;6.30;;;;;;;;;;5116039;28;20035;-62
2021/10/06 11:18:39;;;;;;;6.82;6.20;;;;;;;;;;5116389;28;20031;-62
2021/10/06 11:21:06;;;;;;;8.55;6.50;;;;;;;;;;5116118;28;20043;-62
2021/10/06 11:23:31;;;;;;;13.50;9.75;;;;;;;;;;5116147;28;20038;-61
2021/10/06 11:25:58;;;;;;;9.35;8.10;;;;;;;;;;5115805;28;20110;-61
2021/10/06 11:28:23;;;;;;;29.02;20.90;;;;;;;;;;5116079;28;20031;-61
2021/10/06 11:30:53;;;;;;;8.88;7.55;;;;;;;;;;5115996;28;20043;-61
2021/10/06 11:33:25;;;;;;;6.90;6.20;;;;;;;;;;5115952;28;20031;-61
2021/10/06 11:35:51;;;;;;;179.77;46.38;;;;;;;;;;5115856;28;20482;-62
2021/10/06 11:38:17;;;;;;;29.48;12.35;;;;;;;;;;5115953;28;20041;-61
2021/10/06 11:40:42;;;;;;;63.85;45.40;;;;;;;;;;5115856;28;20040;-62
2021/10/06 11:43:08;;;;;;;12.73;8.32;;;;;;;;;;5115762;28;20062;-62
2021/10/06 11:45:33;;;;;;;31.63;13.52;;;;;;;;;;5115851;28;20100;-62
2021/10/06 11:48:02;;;;;;;8.98;6.93;;;;;;;;;;5115606;28;20122;-62
2021/10/06 11:50:34;;;;;;;8.63;6.75;;;;;;;;;;5115542;28;20436;-62
2021/10/06 11:53:00;;;;;;;122.75;45.20;;;;;;;;;;5114750;28;20084;-62
2021/10/06 11:55:25;;;;;;;125.40;43.83;;;;;;;;;;5115454;28;20032;-62
2021/10/06 11:57:51;;;;;;;131.60;35.15;;;;;;;;;;5115450;28;20471;-62
2021/10/06 12:00:16;;;;;;;47.00;18.08;;;;;;;;;;5115394;28;20024;-62
2021/10/06 12:02:43;;;;;;;23.70;13.10;;;;;;;;;;5115512;28;20054;-62
2021/10/06 12:05:09;;;;;;;58.28;21.80;;;;;;;;;;5115517;28;20023;-62
2021/10/06 12:07:34;;;;;;;28.17;19.83;;;;;;;;;;5115352;28;20462;-62
2021/10/06 12:10:01;;;;;;;10.52;7.80;;;;;;;;;;5115128;28;20122;-62
2021/10/06 12:12:31;;;;;;;7.05;6.43;;;;;;;;;;5115299;28;20114;-62
2021/10/06 12:15:01;;;;;;;17.93;13.93;;;;;;;;;;5114959;28;20077;-63
2021/10/06 12:17:28;;;;;;;142.75;43.63;;;;;;;;;;5115200;28;20035;-62
2021/10/06 12:19:55;;;;;;;101.35;36.83;;;;;;;;;;5114913;28;20040;-64
2021/10/06 12:22:21;;;;;;;166.90;51.20;;;;;;;;;;5115315;28;20039;-61
2021/10/06 12:24:46;;;;;;;86.97;30.70;;;;;;;;;;5115038;28;20027;-62
2021/10/06 12:27:28;;;;;;;41.30;29.67;;;;;;;;;;5114916;28;20419;-61
2021/10/06 12:30:11;;;;;;;23.33;14.05;;;;;;;;;;5114703;28;20066;-61
2021/10/06 12:32:37;;;;;;;26.08;13.82;;;;;;;;;;5114958;28;20395;-61
2021/10/06 12:35:06;;;;;;;36.63;19.30;;;;;;;;;;5114862;28;20038;-61
2021/10/06 12:37:32;;;;;;;49.87;22.73;;;;;;;;;;5114815;28;20066;-61
2021/10/06 12:39:57;;;;;;;21.02;10.60;;;;;;;;;;5114783;28;20289;-61
2021/10/06 12:42:23;;;;;;;9.95;7.93;;;;;;;;;;5114685;28;20094;-61
2021/10/06 12:44:50;;;;;;;12.57;8.88;;;;;;;;;;5114570;28;20027;-61
2021/10/06 12:47:17;;;;;;;36.08;26.35;;;;;;;;;;5114433;28;20179;-61
2021/10/06 12:49:50;;;;;;;10.65;9.23;;;;;;;;;;5114273;28;20032;-61
2021/10/06 12:52:21;;;;;;;8.20;7.30;;;;;;;;;;5114613;28;20524;-61
2021/10/06 12:54:47;;;;;;;12.90;9.10;;;;;;;;;;5114544;28;20510;-61
2021/10/06 12:57:14;;;;;;;33.38;18.05;;;;;;;;;;5114526;28;20015;-61
2021/10/06 12:59:41;;;;;;;37.70;21.17;;;;;;;;;;5114321;28;20039;-61
2021/10/06 13:02:07;;;;;;;20.63;13.85;;;;;;;;;;5114203;28;20024;-61
2021/10/06 13:04:34;;;;;;;30.58;19.27;;;;;;;;;;5113097;28;20612;-61
2021/10/06 13:07:00;;;;;;;21.70;14.13;;;;;;;;;;5114233;28;20051;-61
2021/10/06 13:09:26;;;;;;;22.38;15.63;;;;;;;;;;5114096;28;20039;-61
2021/10/06 13:11:52;;;;;;;20.08;13.68;;;;;;;;;;5114151;28;20035;-61
2021/10/06 13:14:18;;;;;;;12.20;9.60;;;;;;;;;;5095314;28;20042;-61
2021/10/06 13:16:43;;;;;;;10.50;8.40;;;;;;;;;;5113940;28;20040;-61
2021/10/06 13:19:10;;;;;;;17.83;11.00;;;;;;;;;;5096115;28;20120;-61
2021/10/06 13:21:35;;;;;;;71.82;48.47;;;;;;;;;;5114167;28;20028;-61
2021/10/06 13:24:01;;;;;;;32.38;22.20;;;;;;;;;;5114048;28;20035;-61
2021/10/06 13:26:27;;;;;;;27.92;19.70;;;;;;;;;;5113798;28;20023;-61
2021/10/06 13:28:53;;;;;;;27.65;17.98;;;;;;;;;;5113613;28;20483;-61
2021/10/06 13:31:19;;;;;;;20.08;13.13;;;;;;;;;;5113728;28;20023;-61
2021/10/06 13:33:44;;;;;;;14.90;12.48;;;;;;;;;;5113804;28;20035;-61
2021/10/06 13:36:11;;;;;;;69.35;33.80;;;;;;;;;;5113789;28;20027;-61
2021/10/06 13:38:37;;;;;;;33.10;18.20;;;;;;;;;;5113826;28;20062;-61
2021/10/06 13:41:03;;;;;;;42.00;29.95;;;;;;;;;;5113795;28;20483;-61
2021/10/06 13:43:30;;;;;;;71.03;27.27;;;;;;;;;;5113807;28;20070;-61
2021/10/06 13:45:55;;;;;;;108.13;49.70;;;;;;;;;;5113665;28;20425;-61
2021/10/06 13:48:21;;;;;;;105.10;47.10;;;;;;;;;;5113498;28;20099;-62
2021/10/06 13:50:46;;;;;;;24.73;17.35;;;;;;;;;;5113513;28;20034;-62
2021/10/06 13:53:12;;;;;;;26.63;16.52;;;;;;;;;;5113645;28;20099;-61
2021/10/06 13:55:37;;;;;;;15.80;11.55;;;;;;;;;;5113463;28;20052;-61
2021/10/06 13:58:06;;;;;;;15.10;11.18;;;;;;;;;;5113493;28;20039;-61
2021/10/06 14:00:31;;;;;;;19.30;13.95;;;;;;;;;;5113449;28;20032;-61
2021/10/06 14:02:58;;;;;;;17.00;12.25;;;;;;;;;;5113567;28;20035;-61
2021/10/06 14:05:25;;;;;;;22.52;14.85;;;;;;;;;;5113582;28;20097;-61
2021/10/06 14:07:50;;;;;;;11.70;9.55;;;;;;;;;;5113122;28;20479;-62
2021/10/06 14:10:19;;;;;;;11.48;9.25;;;;;;;;;;5113687;28;20474;-62
2021/10/06 14:12:45;;;;;;;12.30;9.98;;;;;;;;;;5113517;28;20093;-61
2021/10/06 14:15:12;;;;;;;30.95;17.88;;;;;;;;;;5113890;28;20048;-61
2021/10/06 14:17:39;;;;;;;98.07;41.30;;;;;;;;;;5117607;28;20032;-62
2021/10/06 14:20:05;;;;;;;182.40;79.10;;;;;;;;;;5117931;28;20036;-61
2021/10/06 14:22:31;;;;;;;172.10;64.63;;;;;;;;;;5099356;28;20058;-61
2021/10/06 14:24:59;;;;;;;61.60;29.42;;;;;;;;;;5117818;28;20031;-61
2021/10/06 14:27:25;;;;;;;44.70;25.90;;;;;;;;;;5117631;28;20384;-61
2021/10/06 14:29:52;;;;;;;25.27;13.88;;;;;;;;;;5099057;28;20439;-61
2021/10/06 14:32:18;;;;;;;25.58;15.05;;;;;;;;;;5117751;28;20027;-62